Time;durP1;ratioP1;P1;durP2;ratioP2;P2;SDS_P1;SDS_P2;PMS_P1;PMS_P2;Temp;Humidity;BMP_temperature;BMP_pressure;BME280_temperature;BME280_humidity;BME280_pressure;Samples;Min_cycle;Max_cycle;Signal;HPM_P1;HPM_P2
2022/12/04 07:48:09;;;;;;;;;68.33;50.00;;;;;2.54;79.75;100857.63;5107671;27;45344;-78
2022/12/04 07:50:35;;;;;;;;;59.75;44.75;;;;;2.64;78.74;100837.28;5104237;27;45456;-80
2022/12/04 07:53:00;;;;;;;;;58.75;41.75;;;;;2.84;78.21;100825.03;5090380;27;45411;-80
2022/12/04 07:55:26;;;;;;;;;61.25;44.50;;;;;3.09;77.61;100829.38;5091745;27;45803;-79
2022/12/04 07:57:51;;;;;;;;;58.75;46.50;;;;;3.26;76.70;100828.22;5089583;27;47347;-64
2022/12/04 08:00:17;;;;;;;;;56.50;43.75;;;;;3.42;75.71;100845.13;5092054;27;45278;-83
2022/12/04 08:02:43;;;;;;;;;61.50;48.25;;;;;3.58;75.85;100836.13;5091487;27;45450;-75
2022/12/04 08:05:08;;;;;;;;;60.75;45.25;;;;;3.73;74.21;100844.41;5093106;27;45420;-83
2022/12/04 08:07:34;;;;;;;;;58.50;44.25;;;;;3.76;74.66;100841.03;5091359;27;45335;-83
2022/12/04 08:10:00;;;;;;;;;60.25;42.75;;;;;3.83;73.86;100830.88;5094028;27;45685;-84
2022/12/04 08:12:25;;;;;;;;;54.75;42.75;;;;;3.96;73.96;100836.44;5095061;27;45526;-84
2022/12/04 08:14:51;;;;;;;;;52.50;40.50;;;;;3.99;73.36;100818.41;5092336;27;45672;-69
2022/12/04 08:17:16;;;;;;;;;55.25;43.50;;;;;4.13;73.28;100836.94;5093643;27;46143;-71
2022/12/04 08:19:42;;;;;;;;;56.25;43.50;;;;;4.16;72.85;100819.78;5093036;27;45390;-66
2022/12/04 08:22:07;;;;;;;;;57.50;41.50;;;;;4.20;72.45;100820.72;5077229;27;45371;-72
2022/12/04 08:24:34;;;;;;;;;53.75;39.50;;;;;4.27;72.09;100816.63;5093248;27;45416;-77
2022/12/04 08:26:59;;;;;;;;;59.00;42.75;;;;;4.42;72.21;100828.31;5095095;27;45515;-68
2022/12/04 08:29:25;;;;;;;;;57.00;43.75;;;;;4.38;72.02;100830.78;5094568;27;45464;-68
2022/12/04 08:31:51;;;;;;;;;50.75;39.25;;;;;4.41;71.48;100829.16;5095213;27;45311;-67
2022/12/04 08:34:16;;;;;;;;;53.75;41.25;;;;;4.53;71.86;100833.81;5092496;27;45686;-70
2022/12/04 08:36:42;;;;;;;;;48.25;37.50;;;;;4.60;71.06;100840.03;5091391;27;45887;-79
2022/12/04 08:39:10;;;;;;;;;47.00;36.00;;;;;4.67;70.80;100847.16;5093060;27;45491;-77
2022/12/04 08:41:35;;;;;;;;;57.75;43.00;;;;;4.74;70.45;100843.00;5090203;27;45495;-66
2022/12/04 08:44:01;;;;;;;;;59.25;44.25;;;;;4.59;70.77;100825.31;5092980;27;45420;-70
2022/12/04 08:46:27;;;;;;;;;63.50;45.75;;;;;4.67;70.66;100828.97;5093255;27;46095;-81
2022/12/04 08:48:54;;;;;;;;;65.50;46.50;;;;;4.74;69.67;100853.38;5091717;27;45614;-74
2022/12/04 08:51:22;;;;;;;;;64.75;46.25;;;;;4.69;69.38;100853.25;5092653;27;45685;-76
2022/12/04 08:53:53;;;;;;;;;62.75;47.00;;;;;4.49;69.18;100844.06;5091817;27;45309;-71
2022/12/04 08:56:19;;;;;;;;;62.75;46.25;;;;;4.53;70.55;100859.75;5091723;27;46128;-75
2022/12/04 08:58:44;;;;;;;;;57.75;44.75;;;;;4.35;70.05;100838.47;5086513;27;45524;-86
2022/12/04 09:01:12;;;;;;;;;61.00;45.00;;;;;4.33;70.01;100837.53;5082679;28;45532;-85
2022/12/04 09:03:38;;;;;;;;;52.25;42.25;;;;;4.53;70.95;100858.84;5081652;28;45550;-75
2022/12/04 09:06:05;;;;;;;;;59.00;44.50;;;;;4.57;70.74;100858.97;5078069;27;46117;-75
2022/12/04 09:08:32;;;;;;;;;53.00;41.50;;;;;4.53;70.32;100851.97;5076276;27;45805;-72
2022/12/04 09:11:13;;;;;;;;;58.75;45.50;;;;;4.56;70.32;100849.47;5080462;27;45689;-73
2022/12/04 09:13:40;;;;;;;;;59.25;45.00;;;;;4.66;70.01;100854.06;5080242;27;45381;-66
2022/12/04 09:16:09;;;;;;;;;56.00;44.50;;;;;4.63;69.95;100855.72;5073730;27;46273;-66
2022/12/04 09:18:36;;;;;;;;;60.75;46.50;;;;;4.68;69.94;100848.91;5074321;27;45481;-65
2022/12/04 09:21:04;;;;;;;;;63.50;46.75;;;;;4.59;69.70;100844.34;5063801;28;45558;-69
2022/12/04 09:23:30;;;;;;;;;64.75;45.75;;;;;4.60;70.16;100866.88;5076093;28;45290;-67
2022/12/04 09:25:56;;;;;;;;;60.25;45.75;;;;;4.57;69.62;100863.31;5073518;28;48093;-78
2022/12/04 09:28:21;;;;;;;;;58.50;44.25;;;;;4.44;70.63;100831.84;5075500;28;45541;-66
2022/12/04 09:31:02;;;;;;;;;64.00;46.00;;;;;4.60;69.84;100851.31;5061477;28;45373;-66
2022/12/04 09:33:29;;;;;;;;;56.75;41.25;;;;;4.27;69.74;100788.97;5075045;27;45456;-68
2022/12/04 09:35:57;;;;;;;;;48.75;38.50;;;;;4.66;70.33;100835.03;5055235;27;47927;-65
2022/12/04 09:38:23;;;;;;;;;54.00;41.50;;;;;4.71;69.83;100837.75;5055651;27;45842;-66
2022/12/04 09:41:22;;;;;;;;;51.75;41.25;;;;;4.86;69.69;100841.66;5056800;27;45552;-66
2022/12/04 09:44:01;;;;;;;;;53.25;41.00;;;;;4.92;69.92;100840.91;5039983;28;45531;-66
2022/12/04 09:46:32;;;;;;;;;60.75;43.00;;;;;5.08;68.94;100857.78;5057381;27;46617;-67
2022/12/04 09:49:05;;;;;;;;;56.00;41.00;;;;;5.08;68.55;100856.06;5058970;27;45363;-66
2022/12/04 09:51:34;;;;;;;;;52.00;39.75;;;;;5.19;69.49;100858.03;5056355;27;45368;-67
2022/12/04 09:54:14;;;;;;;;;57.00;43.00;;;;;5.13;68.16;100852.72;5055860;28;45329;-65
2022/12/04 09:56:42;;;;;;;;;62.25;44.50;;;;;5.03;68.26;100859.34;5055311;27;46340;-65
2022/12/04 09:59:15;;;;;;;;;57.50;43.00;;;;;5.05;69.13;100843.00;5057053;27;45410;-65
2022/12/04 10:01:49;;;;;;;;;57.25;43.75;;;;;5.06;68.69;100844.75;5101402;27;45733;-66
2022/12/04 10:04:16;;;;;;;;;62.50;45.00;;;;;5.10;68.02;100846.59;5061701;27;45419;-67
2022/12/04 10:07:06;;;;;;;;;58.75;44.25;;;;;5.10;67.80;100850.88;5056973;27;46248;-66
2022/12/04 10:09:47;;;;;;;;;60.00;44.00;;;;;5.05;68.56;100847.31;5053849;28;45759;-70
2022/12/04 10:12:51;;;;;;;;;53.50;41.00;;;;;5.08;68.46;100850.00;5062637;27;45635;-67
2022/12/04 10:15:33;;;;;;;;;56.25;44.50;;;;;5.01;68.29;100830.78;5053534;27;45455;-66
2022/12/04 10:18:16;;;;;;;;;57.75;44.00;;;;;5.09;68.52;100855.22;5066348;27;46320;-72
2022/12/04 10:20:47;;;;;;;;;62.00;46.00;;;;;5.07;69.19;100845.63;5059303;28;45449;-70
2022/12/04 10:23:42;;;;;;;;;58.25;44.00;;;;;5.09;68.73;100844.81;5077804;28;45623;-69
2022/12/04 10:26:14;;;;;;;;;61.75;45.00;;;;;5.01;67.80;100840.28;5050464;27;45489;-69
2022/12/04 10:28:51;;;;;;;;;59.25;45.00;;;;;5.00;68.61;100841.13;5058670;27;45341;-65
2022/12/04 10:31:17;;;;;;;;;61.50;47.00;;;;;5.01;68.31;100835.97;5081569;27;45834;-72
2022/12/04 10:33:48;;;;;;;;;57.25;42.75;;;;;5.02;68.45;100834.25;5054097;27;45499;-70
2022/12/04 10:36:22;;;;;;;;;63.00;46.50;;;;;4.99;69.07;100832.47;5061514;27;45555;-68
2022/12/04 10:39:13;;;;;;;;;57.75;43.00;;;;;5.03;68.11;100839.50;5055645;27;45659;-64
2022/12/04 10:41:44;;;;;;;;;62.50;45.00;;;;;5.01;68.59;100828.19;5057810;28;45461;-67
2022/12/04 10:44:18;;;;;;;;;63.25;47.75;;;;;5.05;68.66;100837.81;5062222;27;45518;-75
2022/12/04 10:46:44;;;;;;;;;64.50;47.00;;;;;5.04;68.29;100833.44;5067198;27;45387;-66
2022/12/04 10:49:18;;;;;;;;;58.00;44.50;;;;;5.03;68.41;100844.69;5061688;27;47785;-71
2022/12/04 10:51:45;;;;;;;;;57.25;45.00;;;;;5.00;68.71;100833.31;5062190;27;45641;-70
2022/12/04 10:54:17;;;;;;;;;63.75;45.25;;;;;5.04;68.52;100850.75;5066452;27;45358;-70
2022/12/04 10:56:55;;;;;;;;;63.25;46.25;;;;;4.98;69.21;100840.19;5073985;27;45398;-67
2022/12/04 10:59:21;;;;;;;;;62.50;45.50;;;;;4.90;69.08;100834.81;5071501;27;46164;-69
2022/12/04 11:01:49;;;;;;;;;64.75;46.75;;;;;4.91;69.06;100831.34;5059286;28;45434;-68
2022/12/04 11:04:23;;;;;;;;;62.00;45.00;;;;;4.92;69.01;100834.84;5092448;27;46392;-68
2022/12/04 11:06:51;;;;;;;;;61.00;47.25;;;;;4.89;69.87;100830.47;5061983;27;45486;-73
2022/12/04 11:09:23;;;;;;;;;62.75;47.25;;;;;4.80;69.80;100820.72;5054087;28;46286;-72
2022/12/04 11:11:50;;;;;;;;;58.25;45.75;;;;;4.87;69.99;100827.81;5067138;27;45478;-71
2022/12/04 11:14:19;;;;;;;;;62.50;47.25;;;;;4.93;69.84;100840.06;5063512;27;45500;-70
2022/12/04 11:16:59;;;;;;;;;57.75;45.00;;;;;4.97;69.76;100836.72;5058583;27;45543;-67
2022/12/04 11:19:30;;;;;;;;;62.25;45.75;;;;;5.00;70.91;100821.22;5059619;28;46231;-67
2022/12/04 11:22:02;;;;;;;;;61.25;46.25;;;;;4.99;69.95;100824.66;5106009;27;45646;-74
2022/12/04 11:24:34;;;;;;;;;65.00;45.25;;;;;5.04;69.90;100833.44;5072104;27;45663;-65
2022/12/04 11:27:04;;;;;;;;;58.00;43.50;;;;;5.02;70.25;100813.47;5071576;28;45483;-66
2022/12/04 11:29:35;;;;;;;;;63.75;47.75;;;;;5.09;73.47;100818.00;5074918;27;45495;-67
2022/12/04 11:32:02;;;;;;;;;57.50;45.50;;;;;5.20;69.72;100813.97;5073358;27;45448;-68
2022/12/04 11:34:34;;;;;;;;;66.75;45.75;;;;;5.13;70.12;100808.56;5077154;27;45406;-71
2022/12/04 11:37:00;;;;;;;;;63.75;44.50;;;;;5.12;69.80;100802.47;5074126;27;45463;-71
2022/12/04 11:39:35;;;;;;;;;60.75;44.25;;;;;5.31;69.65;100825.50;5073432;28;45429;-76
2022/12/04 11:42:13;;;;;;;;;59.25;45.25;;;;;5.32;71.87;100815.97;5073528;27;45476;-74
2022/12/04 11:44:50;;;;;;;;;58.75;46.00;;;;;5.36;71.88;100824.72;5063749;28;45478;-72
2022/12/04 11:47:18;;;;;;;;;64.50;46.00;;;;;5.48;72.91;100802.53;5076648;27;45384;-77
2022/12/04 11:49:43;;;;;;;;;58.75;46.25;;;;;5.72;71.89;100811.75;5061511;28;46149;-76
2022/12/04 11:52:27;;;;;;;;;61.00;46.00;;;;;5.64;70.33;100811.53;5069307;28;45387;-73
2022/12/04 11:55:14;;;;;;;;;64.75;47.00;;;;;5.50;69.97;100802.53;5092732;27;45427;-68
2022/12/04 11:57:52;;;;;;;;;56.75;44.75;;;;;5.39;69.97;100798.84;5073894;28;45447;-74
2022/12/04 12:00:21;;;;;;;;;62.50;45.00;;;;;5.32;70.59;100808.19;5073935;28;45505;-72
2022/12/04 12:03:05;;;;;;;;;58.25;44.50;;;;;5.30;69.98;100800.34;5073852;28;45408;-66
2022/12/04 12:05:42;;;;;;;;;53.25;40.75;;;;;5.41;69.63;100790.22;5073400;28;45585;-69
2022/12/04 12:08:36;;;;;;;;;48.25;40.75;;;;;5.47;70.27;100790.34;5074169;28;45561;-71
2022/12/04 12:11:25;;;;;;;;;55.75;43.50;;;;;5.45;69.74;100780.78;5074065;28;46744;-76
2022/12/04 12:14:08;;;;;;;;;61.25;46.00;;;;;5.36;69.66;100768.44;5074520;27;45457;-77
2022/12/04 12:17:22;;;;;;;;;55.75;42.50;;;;;5.47;70.06;100787.75;5068983;27;45592;-78
2022/12/04 12:20:31;;;;;;;;;62.50;46.00;;;;;5.43;70.17;100788.53;5048794;28;45316;-69
2022/12/04 12:23:32;;;;;;;;;57.00;42.75;;;;;5.34;70.50;100788.34;5059650;28;46858;-76
2022/12/04 12:26:13;;;;;;;;;55.75;42.75;;;;;5.22;70.93;100775.03;5049217;28;45917;-70
2022/12/04 12:29:18;;;;;;;;;58.25;42.25;;;;;5.21;71.29;100762.91;5090554;27;45540;-69
2022/12/04 12:32:09;;;;;;;;;61.75;45.25;;;;;5.26;71.22;100789.84;5077880;28;45436;-72
2022/12/04 12:34:39;;;;;;;;;57.25;45.00;;;;;5.20;71.61;100788.00;5079500;27;46786;-68
2022/12/04 12:37:14;;;;;;;;;59.25;45.75;;;;;5.16;71.47;100772.28;5077047;27;45447;-67
2022/12/04 12:39:46;;;;;;;;;62.00;44.50;;;;;5.19;70.93;100768.03;5064081;28;45564;-70
2022/12/04 12:42:20;;;;;;;;;61.00;47.25;;;;;5.23;71.57;100792.38;5109865;27;45775;-68
2022/12/04 12:45:14;;;;;;;;;60.75;47.00;;;;;5.15;71.96;100797.38;5077148;28;45576;-68
2022/12/04 12:47:44;;;;;;;;;58.00;46.25;;;;;5.11;71.50;100785.16;5077790;28;45649;-67
2022/12/04 12:50:37;;;;;;;;;55.75;41.50;;;;;5.20;72.26;100779.31;5081543;27;45443;-66
2022/12/04 12:53:37;;;;;;;;;57.50;42.25;;;;;5.36;71.63;100784.03;5077286;28;46232;-72
2022/12/04 12:56:05;;;;;;;;;56.75;46.25;;;;;5.38;70.71;100777.16;5098531;27;46800;-70
2022/12/04 12:58:57;;;;;;;;;61.25;44.50;;;;;5.39;71.06;100791.03;5082370;27;45176;-71
2022/12/04 13:01:38;;;;;;;;;55.00;42.75;;;;;5.32;71.22;100790.00;5073700;28;45401;-67
2022/12/04 13:04:29;;;;;;;;;51.00;39.75;;;;;5.38;71.11;100784.94;5077394;28;45554;-68
2022/12/04 13:07:16;;;;;;;;;59.25;44.00;;;;;5.48;70.92;100784.34;5076928;28;45818;-69
2022/12/04 13:09:55;;;;;;;;;61.50;45.00;;;;;5.41;70.42;100771.16;5077776;28;45316;-70
2022/12/04 13:12:22;;;;;;;;;60.75;44.25;;;;;5.46;70.45;100780.81;5079925;27;45482;-69
2022/12/04 13:14:48;;;;;;;;;63.50;46.50;;;;;5.50;70.06;100780.06;5076477;27;45464;-69
2022/12/04 13:17:22;;;;;;;;;57.75;43.25;;;;;5.46;70.18;100779.94;5075603;28;46094;-66
2022/12/04 13:19:55;;;;;;;;;59.25;42.50;;;;;5.57;70.17;100781.06;5065539;27;45725;-70
2022/12/04 13:22:39;;;;;;;;;58.25;45.50;;;;;5.58;69.94;100776.75;5078394;28;45239;-67
2022/12/04 13:25:33;;;;;;;;;52.75;42.00;;;;;5.65;69.88;100778.66;5080050;27;45482;-67
2022/12/04 13:28:05;;;;;;;;;54.25;42.75;;;;;5.64;69.61;100777.75;5068411;28;46212;-70
2022/12/04 13:31:19;;;;;;;;;55.50;43.75;;;;;5.70;70.14;100777.91;5073614;28;45546;-73
2022/12/04 13:34:00;;;;;;;;;56.50;42.50;;;;;5.75;69.43;100788.41;5032842;28;46019;-68
2022/12/04 13:36:34;;;;;;;;;62.50;44.00;;;;;5.79;69.40;100785.03;5033068;28;45627;-66
2022/12/04 13:39:27;;;;;;;;;50.75;40.75;;;;;5.85;69.71;100779.09;5048549;28;45929;-70
2022/12/04 13:42:03;;;;;;;;;51.00;42.00;;;;;5.93;69.14;100778.41;5074158;28;45416;-66
2022/12/04 13:44:31;;;;;;;;;49.25;36.00;;;;;5.96;68.95;100772.44;5075234;27;45455;-66
2022/12/04 13:47:01;;;;;;;;;59.50;44.00;;;;;6.05;69.17;100782.13;5075424;28;45317;-67
2022/12/04 13:49:44;;;;;;;;;59.00;46.00;;;;;6.00;69.03;100782.03;5075345;27;45444;-72
2022/12/04 13:52:38;;;;;;;;;58.00;44.50;;;;;5.94;68.45;100787.13;5074273;28;45416;-67
2022/12/04 13:55:04;;;;;;;;;65.25;48.00;;;;;5.74;69.26;100781.44;5075683;28;45489;-71
2022/12/04 13:57:30;;;;;;;;;56.75;42.00;;;;;5.82;69.84;100795.50;5075362;27;45511;-67
2022/12/04 14:00:28;;;;;;;;;61.50;45.00;;;;;5.86;69.60;100799.94;5060949;28;46423;-69
2022/12/04 14:03:01;;;;;;;;;64.50;48.00;;;;;5.72;69.52;100790.94;5074809;28;45543;-70
2022/12/04 14:05:41;;;;;;;;;61.50;45.00;;;;;5.64;69.90;100795.94;5075046;28;45499;-70
2022/12/04 14:08:19;;;;;;;;;51.25;36.50;;;;;5.72;69.63;100806.53;5073873;28;45691;-68
2022/12/04 14:11:17;;;;;;;;;58.25;42.00;;;;;5.68;69.95;100805.56;5075044;27;46495;-71
2022/12/04 14:14:02;;;;;;;;;62.50;46.50;;;;;5.65;69.89;100808.13;5075109;27;45468;-71
2022/12/04 14:16:40;;;;;;;;;59.00;44.25;;;;;5.67;70.50;100798.63;5075038;28;45890;-68
2022/12/04 14:19:07;;;;;;;;;59.25;45.00;;;;;5.61;70.23;100795.88;5069444;28;45512;-69
2022/12/04 14:21:44;;;;;;;;;59.50;44.00;;;;;5.58;69.89;100802.75;5067723;28;46942;-67
2022/12/04 14:24:30;;;;;;;;;64.00;45.75;;;;;5.55;70.68;100807.84;5074362;27;45709;-74
2022/12/04 14:26:56;;;;;;;;;54.00;41.75;;;;;5.48;70.18;100796.44;5074300;28;45508;-66
2022/12/04 14:29:22;;;;;;;;;56.25;45.00;;;;;5.60;70.02;100801.03;5076972;28;45575;-70
2022/12/04 14:31:48;;;;;;;;;58.25;43.50;;;;;5.68;70.03;100799.50;5073103;28;47023;-71
2022/12/04 14:34:20;;;;;;;;;60.00;46.50;;;;;5.70;69.99;100808.22;5072001;28;45549;-74
2022/12/04 14:36:49;;;;;;;;;58.25;42.75;;;;;5.69;69.40;100809.91;5075719;27;45372;-76
2022/12/04 14:39:33;;;;;;;;;66.00;48.75;;;;;5.78;69.43;100819.66;5074350;27;45545;-68
2022/12/04 14:42:22;;;;;;;;;62.75;45.25;;;;;5.76;69.42;100823.94;5073843;28;45437;-73
2022/12/04 14:44:52;;;;;;;;;58.50;43.50;;;;;5.71;68.68;100804.75;5076618;27;45567;-75
2022/12/04 14:47:52;;;;;;;;;58.75;44.50;;;;;5.69;68.68;100819.44;5076301;28;45701;-66
2022/12/04 14:50:47;;;;;;;;;57.50;45.00;;;;;5.64;68.85;100818.47;5074933;27;45706;-69
2022/12/04 14:53:50;;;;;;;;;60.25;44.25;;;;;5.62;68.77;100826.22;5077046;28;47055;-69
2022/12/04 14:56:28;;;;;;;;;59.75;45.00;;;;;5.63;68.88;100819.31;5078212;27;45581;-71
2022/12/04 14:58:55;;;;;;;;;62.75;44.50;;;;;5.59;68.44;100818.34;5081234;27;45359;-67
2022/12/04 15:01:25;;;;;;;;;57.75;45.75;;;;;5.48;68.98;100814.59;5073198;28;45609;-73
2022/12/04 15:03:54;;;;;;;;;57.50;44.00;;;;;5.54;68.60;100825.16;5074839;27;45579;-76
2022/12/04 15:06:29;;;;;;;;;58.00;44.00;;;;;5.55;69.00;100816.50;5078024;28;45329;-71
2022/12/04 15:14:58;;;;;;;;;57.75;43.75;;;;;5.47;68.53;100818.06;5073519;27;45815;-73
2022/12/04 15:17:24;;;;;;;;;57.50;43.75;;;;;5.54;68.82;100827.75;5074398;27;45418;-77
2022/12/04 15:19:50;;;;;;;;;55.75;43.75;;;;;5.39;69.26;100815.28;5062338;27;45444;-75
2022/12/04 15:22:24;;;;;;;;;57.75;44.00;;;;;5.41;69.52;100826.59;5073612;28;45281;-74
2022/12/04 15:24:52;;;;;;;;;59.25;45.00;;;;;5.44;69.09;100839.66;5075754;27;45459;-77
2022/12/04 15:27:24;;;;;;;;;62.50;45.50;;;;;5.47;69.24;100854.44;5073821;28;45481;-69
2022/12/04 15:29:52;;;;;;;;;58.75;42.50;;;;;5.46;69.17;100850.97;5075043;27;45693;-77
2022/12/04 15:32:21;;;;;;;;;53.75;41.25;;;;;5.46;69.50;100840.56;5074777;27;45519;-76
2022/12/04 15:34:53;;;;;;;;;60.25;45.50;;;;;5.53;68.96;100862.38;5073314;28;45760;-71
2022/12/04 15:37:25;;;;;;;;;58.50;45.25;;;;;5.45;69.56;100864.78;5074209;28;45547;-74
2022/12/04 15:39:51;;;;;;;;;62.75;47.25;;;;;5.39;69.02;100848.19;5106585;27;45443;-76
2022/12/04 15:42:23;;;;;;;;;60.50;44.75;;;;;5.36;69.19;100861.94;5073688;27;45385;-75
2022/12/04 15:45:12;;;;;;;;;60.50;45.75;;;;;5.36;68.68;100869.72;5074126;28;45619;-76
2022/12/04 15:47:52;;;;;;;;;63.00;46.00;;;;;5.31;69.08;100859.25;5072801;27;45500;-73
2022/12/04 15:50:18;;;;;;;;;63.50;46.50;;;;;5.35;69.70;100865.41;5077546;27;45366;-74
2022/12/04 15:53:05;;;;;;;;;61.50;45.25;;;;;5.32;69.68;100858.41;5077577;28;45562;-76
2022/12/04 15:55:39;;;;;;;;;57.75;42.50;;;;;5.35;69.15;100867.13;5078162;28;47088;-78
2022/12/04 15:58:44;;;;;;;;;55.00;42.00;;;;;5.40;69.61;100866.38;5077664;28;45398;-70
2022/12/04 16:01:14;;;;;;;;;58.00;43.75;;;;;5.54;68.88;100874.53;5061452;28;45417;-66
2022/12/04 16:03:43;;;;;;;;;60.75;44.75;;;;;5.55;69.16;100872.81;5071859;27;45900;-66
2022/12/04 16:06:18;;;;;;;;;58.75;45.75;;;;;5.53;68.82;100878.84;5083872;27;46973;-66
2022/12/04 16:08:51;;;;;;;;;59.25;44.00;;;;;5.49;69.26;100877.00;5065148;27;45780;-66
2022/12/04 16:11:19;;;;;;;;;54.75;43.25;;;;;5.49;69.54;100884.81;5078652;27;46176;-69
2022/12/04 16:14:00;;;;;;;;;56.25;40.50;;;;;5.51;69.48;100883.13;5061115;27;45449;-67
2022/12/04 16:16:26;;;;;;;;;56.50;41.75;;;;;5.53;69.46;100873.66;5059511;27;46125;-66
2022/12/04 16:18:52;;;;;;;;;56.00;38.75;;;;;5.56;69.38;100870.25;5067341;27;45436;-64
2022/12/04 16:21:21;;;;;;;;;62.25;47.00;;;;;5.62;68.68;100882.50;5065574;28;45436;-67
2022/12/04 16:23:47;;;;;;;;;61.50;46.25;;;;;5.39;68.66;100849.06;5076673;28;45377;-66
2022/12/04 16:26:18;;;;;;;;;59.00;45.50;;;;;5.63;69.90;100879.09;5074782;28;45452;-67
2022/12/04 16:28:44;;;;;;;;;63.75;46.25;;;;;5.59;68.48;100874.63;5094586;27;45551;-66
2022/12/04 16:31:12;;;;;;;;;59.25;44.25;;;;;5.58;68.57;100885.88;5068728;27;45580;-66
2022/12/04 16:33:38;;;;;;;;;56.00;42.50;;;;;5.43;69.14;100881.16;5093802;27;45361;-68
2022/12/04 16:36:10;;;;;;;;;58.00;44.00;;;;;5.55;69.22;100890.97;5063498;27;46148;-66
2022/12/04 16:38:36;;;;;;;;;62.50;47.25;;;;;5.46;69.55;100874.34;5061541;27;45547;-66
2022/12/04 16:41:04;;;;;;;;;62.75;46.00;;;;;5.53;68.67;100889.25;5063641;27;45390;-67
2022/12/04 16:43:31;;;;;;;;;64.25;46.00;;;;;5.47;68.96;100880.41;5071381;27;45611;-70
2022/12/04 16:45:59;;;;;;;;;57.50;43.00;;;;;5.52;68.94;100887.47;5068755;27;46919;-67
2022/12/04 16:48:26;;;;;;;;;52.25;36.50;;;;;5.62;70.38;100892.91;5068726;27;45523;-69
2022/12/04 16:50:52;;;;;;;;;51.00;38.50;;;;;5.67;69.15;100886.09;5059375;27;45451;-67
2022/12/04 16:53:19;;;;;;;;;58.25;42.50;;;;;5.67;68.72;100887.00;5065382;27;45480;-68
2022/12/04 16:55:48;;;;;;;;;63.25;49.00;;;;;5.62;68.09;100883.38;5063786;27;46236;-69
2022/12/04 16:58:14;;;;;;;;;64.00;46.25;;;;;5.52;68.26;100865.81;5069592;27;45635;-67
2022/12/04 17:00:44;;;;;;;;;59.75;45.25;;;;;5.52;69.03;100889.19;5068091;27;45508;-66
2022/12/04 17:03:22;;;;;;;;;55.75;40.75;;;;;5.52;69.09;100892.66;5061777;27;45469;-67
2022/12/04 17:05:48;;;;;;;;;61.75;48.00;;;;;5.45;68.63;100880.38;5072936;27;45726;-70
2022/12/04 17:08:14;;;;;;;;;63.00;47.00;;;;;5.49;68.90;100899.50;5060860;27;45476;-68
2022/12/04 17:10:40;;;;;;;;;61.25;47.25;;;;;5.36;68.75;100887.91;5059909;27;45374;-70
2022/12/04 17:13:05;;;;;;;;;56.50;46.25;;;;;5.33;68.72;100890.44;5067915;27;45352;-72
2022/12/04 17:15:31;;;;;;;;;54.75;41.75;;;;;5.35;69.42;100893.09;5059949;27;45776;-66
2022/12/04 17:17:56;;;;;;;;;51.00;41.25;;;;;5.40;69.66;100901.88;5077292;27;45513;-70
2022/12/04 17:20:22;;;;;;;;;51.75;43.00;;;;;5.40;68.49;100897.56;5074556;28;45579;-71
2022/12/04 17:22:48;;;;;;;;;60.25;45.25;;;;;5.52;69.02;100916.03;5080055;28;45488;-73
2022/12/04 17:25:14;;;;;;;;;56.50;43.75;;;;;5.48;68.42;100922.03;5077369;28;45636;-71
2022/12/04 17:27:40;;;;;;;;;62.25;47.00;;;;;5.49;68.74;100936.75;5074905;28;45462;-76
2022/12/04 17:30:06;;;;;;;;;61.75;44.75;;;;;5.47;68.07;100928.03;5073758;28;45490;-71
2022/12/04 17:32:33;;;;;;;;;61.75;44.25;;;;;5.46;67.79;100941.00;5077279;28;45583;-76
2022/12/04 17:35:00;;;;;;;;;51.25;40.50;;;;;5.41;68.26;100940.88;5079403;27;46328;-66
2022/12/04 17:37:26;;;;;;;;;49.00;39.00;;;;;5.44;68.66;100932.28;5067143;27;45562;-72
2022/12/04 17:40:01;;;;;;;;;50.25;38.25;;;;;5.45;68.33;100940.09;5071624;27;45337;-72
2022/12/04 17:42:39;;;;;;;;;54.50;43.00;;;;;5.52;67.90;100936.84;5058601;27;45521;-72
2022/12/04 17:45:09;;;;;;;;;55.00;42.00;;;;;5.53;68.26;100948.13;5063200;27;46396;-76
2022/12/04 17:47:43;;;;;;;;;60.75;44.00;;;;;5.30;67.82;100904.22;5072148;27;45576;-76
2022/12/04 17:50:10;;;;;;;;;54.25;41.25;;;;;5.25;68.27;100899.78;5065638;27;45540;-71
2022/12/04 17:52:35;;;;;;;;;50.25;39.00;;;;;5.48;67.74;100948.00;5070640;27;45449;-74
2022/12/04 17:55:01;;;;;;;;;50.75;39.50;;;;;5.47;67.86;100935.84;5066058;27;45718;-75
2022/12/04 17:57:27;;;;;;;;;51.50;38.75;;;;;5.47;68.26;100924.56;5077100;27;45468;-67
2022/12/04 17:59:53;;;;;;;;;48.00;38.50;;;;;5.53;67.89;100940.34;5070848;27;45479;-70
2022/12/04 18:02:18;;;;;;;;;50.25;39.75;;;;;5.64;67.49;100950.97;5076530;27;45444;-74
2022/12/04 18:04:46;;;;;;;;;49.75;39.00;;;;;5.64;67.37;100956.19;5071648;27;45789;-75
2022/12/04 18:07:12;;;;;;;;;59.25;43.25;;;;;5.57;67.58;100936.94;5074351;27;45623;-72
2022/12/04 18:09:37;;;;;;;;;59.00;45.00;;;;;5.58;67.18;100948.25;5070493;27;45939;-74
2022/12/04 18:12:03;;;;;;;;;56.25;43.75;;;;;5.50;66.93;100948.94;5063804;27;45496;-75
2022/12/04 18:14:30;;;;;;;;;56.00;43.75;;;;;5.42;67.37;100947.84;5058833;27;46274;-68
2022/12/04 18:16:57;;;;;;;;;58.75;45.00;;;;;5.43;67.44;100961.69;5060900;27;45442;-70
2022/12/04 18:19:25;;;;;;;;;58.00;46.00;;;;;5.38;67.87;100958.97;5075689;27;45468;-71
2022/12/04 18:21:52;;;;;;;;;57.75;45.50;;;;;5.21;67.76;100932.56;5075895;27;45406;-66
2022/12/04 18:24:20;;;;;;;;;54.00;43.00;;;;;5.30;67.79;100955.31;5077268;28;45472;-70
2022/12/04 18:26:48;;;;;;;;;50.50;41.00;;;;;5.25;68.34;100956.91;5072326;27;45549;-76
2022/12/04 18:29:19;;;;;;;;;56.00;43.00;;;;;5.29;67.30;100967.41;5072102;28;45526;-67
2022/12/04 18:31:45;;;;;;;;;59.25;44.75;;;;;5.22;67.71;100964.59;5073519;27;45464;-69
2022/12/04 18:34:30;;;;;;;;;57.25;44.75;;;;;5.18;67.99;100963.63;5073082;27;46445;-73
2022/12/04 18:36:56;;;;;;;;;60.50;44.50;;;;;5.16;68.53;100964.44;5070946;27;45817;-73
2022/12/04 18:39:23;;;;;;;;;60.25;44.75;;;;;5.11;68.44;100959.13;5102839;27;45738;-67
2022/12/04 18:41:49;;;;;;;;;53.75;42.00;;;;;5.09;68.20;100963.38;5074731;27;45513;-66
2022/12/04 18:44:16;;;;;;;;;55.75;41.25;;;;;5.12;68.45;100970.38;5072413;27;45468;-67
2022/12/04 18:46:41;;;;;;;;;49.25;37.75;;;;;5.18;68.87;100979.22;5059200;27;45401;-67
2022/12/04 18:49:08;;;;;;;;;57.50;43.25;;;;;5.24;68.20;100983.69;5071018;27;45606;-72
2022/12/04 18:51:38;;;;;;;;;55.75;43.50;;;;;5.28;68.58;100989.00;5065895;28;45552;-71
2022/12/04 18:54:15;;;;;;;;;56.25;42.50;;;;;5.31;67.98;100988.22;5058152;27;46994;-73
2022/12/04 18:56:41;;;;;;;;;56.00;43.00;;;;;5.31;68.51;100983.94;5066349;27;45481;-72
2022/12/04 18:59:20;;;;;;;;;50.00;39.25;;;;;5.29;68.32;100982.09;5055237;27;45811;-66
2022/12/04 19:01:48;;;;;;;;;56.75;43.25;;;;;5.43;67.81;100992.88;5075317;27;45558;-68
2022/12/04 19:04:16;;;;;;;;;56.50;44.25;;;;;5.38;67.81;100992.75;5068534;27;47427;-72
2022/12/04 19:06:45;;;;;;;;;64.75;48.50;;;;;5.35;67.65;100987.47;5066577;27;46480;-76
2022/12/04 19:09:15;;;;;;;;;52.75;42.50;;;;;5.32;67.70;101001.25;5092994;27;45607;-74
2022/12/04 19:11:42;;;;;;;;;52.00;39.50;;;;;5.44;70.49;101005.91;5062454;27;45466;-71
2022/12/04 19:14:10;;;;;;;;;51.00;39.00;;;;;5.49;68.65;101001.72;5056455;27;45786;-69
2022/12/04 19:16:35;;;;;;;;;58.00;43.25;;;;;5.50;67.46;100993.09;5064067;28;45617;-69
2022/12/04 19:19:01;;;;;;;;;58.00;43.75;;;;;5.39;67.34;100976.34;5057181;27;45549;-69
2022/12/04 19:21:27;;;;;;;;;57.50;45.00;;;;;5.45;67.47;101001.59;5064966;28;45533;-69
2022/12/04 19:24:00;;;;;;;;;54.00;43.00;;;;;5.33;67.48;100996.94;5073822;28;47157;-66
2022/12/04 19:26:27;;;;;;;;;47.00;36.75;;;;;5.42;67.63;101002.38;5072970;27;45713;-67
2022/12/04 19:28:54;;;;;;;;;48.75;39.25;;;;;5.39;67.38;100988.44;5073843;27;45345;-66
2022/12/04 19:31:26;;;;;;;;;50.75;39.00;;;;;5.46;67.22;101006.84;5071728;28;45452;-67
2022/12/04 19:33:52;;;;;;;;;44.50;35.00;;;;;5.54;67.21;101012.22;5076155;27;45480;-67
2022/12/04 19:36:18;;;;;;;;;51.00;38.50;;;;;5.57;67.57;101006.22;5073466;27;45535;-67